Cylinder, Iowa
Current Conditions -  °F | °C
As of 2:35 AM on Friday 28 Nov 2014 (Local Time) from KAXA Reporting Station
Overcast Overcast  
Wind Chill: -19°   Ceiling: 12000
Heat Index: -9°   Visibility: 10mi
Dew Point: -14°   Wind: 21mph
Humidity: 68%   Direction: 150°SSE
Pressure: 30.05"   Gusts: NA
Location:  43.09°N, 94.55°W
Report Text: KAXA 280835Z AUTO 15018KT 10SM OVC120 M09/M14 A3005 RMK AO2
Loading
Personal Weather Stations






























Interactive Weather Map New forecast layout! Learn more

10-Day Weather Forecast

Advertisements
Track Severe Weather on mobile